HLZ weather

Hamilton International Airport
Hamilton, Waikato Region, New Zealand

Public forecast

Using degrees Celsius for public forecast. Weather courtesy of forecast.io.

METAR (pilot weather report)

Closest report is Auckland International Airport, 57.6 nm (106.7 km) NNW. Retrieved 2019/04/26 15:30 UTC (0 seconds ago):

NZAA 261530Z AUTO 02004KT 9999 FEW020/// 14/14 Q1017 NOSIG

TAF (pilot weather forecast)

Closest forecast is Auckland International Airport, 57.6 nm (106.7 km) NNW. Retrieved 2019/04/26 12:43 UTC (3 hours ago):

TAF NZAA 261140Z 2612/2712 VRB02KT 9999 SCT020 PROB40 TEMPO 2614/2621 0500 FG BECMG 2622/2700 01010KT